sensor_id;sensor_type;location;lat;lon;timestamp;pressure;altitude;pressure_sealevel;temperature;humidity
50550;BME280;36505;52.512;13.460;2023-01-25T00:00:37;103356.63;;;1.51;76.97
50550;BME280;36505;52.512;13.460;2023-01-25T00:03:02;103361.41;;;1.58;76.98
50550;BME280;36505;52.512;13.460;2023-01-25T00:05:28;103353.41;;;1.57;76.97
50550;BME280;36505;52.512;13.460;2023-01-25T00:07:53;103343.38;;;1.59;76.51
50550;BME280;36505;52.512;13.460;2023-01-25T00:10:19;103332.69;;;1.57;76.75
50550;BME280;36505;52.512;13.460;2023-01-25T00:12:44;103330.34;;;1.64;76.39
50550;BME280;36505;52.512;13.460;2023-01-25T00:15:10;103323.38;;;1.62;76.46
50550;BME280;36505;52.512;13.460;2023-01-25T00:17:36;103332.69;;;1.69;76.38
50550;BME280;36505;52.512;13.460;2023-01-25T00:20:02;103327.19;;;1.70;76.45
50550;BME280;36505;52.512;13.460;2023-01-25T00:22:27;103316.59;;;1.67;76.64
50550;BME280;36505;52.512;13.460;2023-01-25T00:24:52;103310.22;;;1.68;76.62
50550;BME280;36505;52.512;13.460;2023-01-25T00:27:18;103308.50;;;1.67;76.82
50550;BME280;36505;52.512;13.460;2023-01-25T00:29:43;103300.41;;;1.67;76.72
50550;BME280;36505;52.512;13.460;2023-01-25T00:34:47;103277.94;;;1.67;76.70
50550;BME280;36505;52.512;13.460;2023-01-25T00:37:28;103278.56;;;1.70;76.83
50550;BME280;36505;52.512;13.460;2023-01-25T00:39:54;103267.50;;;1.73;76.94
50550;BME280;36505;52.512;13.460;2023-01-25T00:42:20;103259.50;;;1.72;76.94
50550;BME280;36505;52.512;13.460;2023-01-25T00:44:46;103246.50;;;1.66;76.72
50550;BME280;36505;52.512;13.460;2023-01-25T00:47:12;103253.25;;;1.71;76.55
50550;BME280;36505;52.512;13.460;2023-01-25T00:49:39;103251.41;;;1.72;76.46
50550;BME280;36505;52.512;13.460;2023-01-25T00:52:05;103251.28;;;1.73;76.57
50550;BME280;36505;52.512;13.460;2023-01-25T00:54:31;103243.66;;;1.78;76.74
50550;BME280;36505;52.512;13.460;2023-01-25T00:56:56;103244.50;;;1.79;76.87
50550;BME280;36505;52.512;13.460;2023-01-25T00:59:22;103246.84;;;1.83;76.86
50550;BME280;36505;52.512;13.460;2023-01-25T01:01:48;103248.53;;;1.84;76.94
50550;BME280;36505;52.512;13.460;2023-01-25T01:04:14;103253.94;;;1.84;76.74
50550;BME280;36505;52.512;13.460;2023-01-25T01:06:41;103254.97;;;1.83;76.70
50550;BME280;36505;52.512;13.460;2023-01-25T01:09:11;103260.22;;;1.85;76.96
50550;BME280;36505;52.512;13.460;2023-01-25T01:11:37;103269.44;;;1.82;76.86
50550;BME280;36505;52.512;13.460;2023-01-25T01:14:02;103263.19;;;1.82;77.31
50550;BME280;36505;52.512;13.460;2023-01-25T01:16:28;103269.56;;;1.81;77.32
50550;BME280;36505;52.512;13.460;2023-01-25T01:18:53;103266.88;;;1.81;76.96
50550;BME280;36505;52.512;13.460;2023-01-25T01:21:19;103253.34;;;1.81;76.98
50550;BME280;36505;52.512;13.460;2023-01-25T01:23:44;103259.84;;;1.78;77.20
50550;BME280;36505;52.512;13.460;2023-01-25T01:26:12;103265.13;;;1.80;76.95
50550;BME280;36505;52.512;13.460;2023-01-25T01:28:38;103253.59;;;1.78;77.33
50550;BME280;36505;52.512;13.460;2023-01-25T01:31:10;103232.88;;;1.67;77.16
50550;BME280;36505;52.512;13.460;2023-01-25T01:33:36;103257.78;;;1.82;77.14
50550;BME280;36505;52.512;13.460;2023-01-25T01:38:33;103249.66;;;1.82;77.63
50550;BME280;36505;52.512;13.460;2023-01-25T01:40:58;103256.19;;;1.79;77.58
50550;BME280;36505;52.512;13.460;2023-01-25T01:43:24;103247.94;;;1.81;77.50
50550;BME280;36505;52.512;13.460;2023-01-25T01:45:55;103248.34;;;1.76;77.65
50550;BME280;36505;52.512;13.460;2023-01-25T01:53:36;103228.94;;;1.71;77.49
50550;BME280;36505;52.512;13.460;2023-01-25T01:56:06;103224.66;;;1.69;77.57
50550;BME280;36505;52.512;13.460;2023-01-25T01:58:35;103238.25;;;1.78;77.38
50550;BME280;36505;52.512;13.460;2023-01-25T02:01:01;103231.63;;;1.71;77.71
50550;BME280;36505;52.512;13.460;2023-01-25T02:03:27;103240.81;;;1.80;78.04
50550;BME280;36505;52.512;13.460;2023-01-25T02:06:07;103225.00;;;1.75;77.89
50550;BME280;36505;52.512;13.460;2023-01-25T02:08:35;103235.19;;;1.83;77.80
50550;BME280;36505;52.512;13.460;2023-01-25T02:11:02;103222.53;;;1.72;77.91
50550;BME280;36505;52.512;13.460;2023-01-25T02:13:29;103234.44;;;1.81;77.71
50550;BME280;36505;52.512;13.460;2023-01-25T02:15:55;103232.47;;;1.83;77.98
50550;BME280;36505;52.512;13.460;2023-01-25T02:18:22;103224.22;;;1.84;77.84
50550;BME280;36505;52.512;13.460;2023-01-25T02:20:53;103225.09;;;1.85;78.05
50550;BME280;36505;52.512;13.460;2023-01-25T02:23:33;103222.53;;;1.83;77.98
50550;BME280;36505;52.512;13.460;2023-01-25T02:26:03;103228.81;;;1.84;77.62
50550;BME280;36505;52.512;13.460;2023-01-25T02:28:34;103208.53;;;1.78;77.74
50550;BME280;36505;52.512;13.460;2023-01-25T02:31:00;103220.81;;;1.82;77.88
50550;BME280;36505;52.512;13.460;2023-01-25T02:33:27;103222.38;;;1.85;77.86
50550;BME280;36505;52.512;13.460;2023-01-25T02:35:57;103235.03;;;1.84;77.93
50550;BME280;36505;52.512;13.460;2023-01-25T02:38:24;103223.53;;;1.82;78.05
50550;BME280;36505;52.512;13.460;2023-01-25T02:40:57;103225.94;;;1.85;78.01
50550;BME280;36505;52.512;13.460;2023-01-25T02:43:28;103217.72;;;1.87;77.75
50550;BME280;36505;52.512;13.460;2023-01-25T02:46:00;103213.91;;;1.89;77.62
50550;BME280;36505;52.512;13.460;2023-01-25T02:48:27;103210.34;;;1.89;77.88
50550;BME280;36505;52.512;13.460;2023-01-25T02:50:53;103211.09;;;1.91;78.04
50550;BME280;36505;52.512;13.460;2023-01-25T02:53:18;103205.81;;;1.89;78.13
50550;BME280;36505;52.512;13.460;2023-01-25T02:55:43;103205.94;;;1.88;78.12
50550;BME280;36505;52.512;13.460;2023-01-25T02:58:09;103210.34;;;1.89;78.10
50550;BME280;36505;52.512;13.460;2023-01-25T03:00:34;103207.66;;;1.89;78.12
50550;BME280;36505;52.512;13.460;2023-01-25T03:03:00;103201.38;;;1.88;78.29
50550;BME280;36505;52.512;13.460;2023-01-25T03:05:25;103197.84;;;1.88;78.01
50550;BME280;36505;52.512;13.460;2023-01-25T03:07:51;103201.38;;;1.88;78.33
50550;BME280;36505;52.512;13.460;2023-01-25T03:10:16;103204.09;;;1.88;78.26
50550;BME280;36505;52.512;13.460;2023-01-25T03:12:41;103201.38;;;1.88;78.00
50550;BME280;36505;52.512;13.460;2023-01-25T03:15:07;103197.44;;;1.92;77.84
50550;BME280;36505;52.512;13.460;2023-01-25T03:17:33;103194.16;;;1.89;78.18
50550;BME280;36505;52.512;13.460;2023-01-25T03:19:58;103185.19;;;1.88;78.36
50550;BME280;36505;52.512;13.460;2023-01-25T03:22:23;103190.97;;;1.84;78.28
50550;BME280;36505;52.512;13.460;2023-01-25T03:24:49;103192.66;;;1.85;78.47
50550;BME280;36505;52.512;13.460;2023-01-25T03:27:14;103180.41;;;1.81;78.14
50550;BME280;36505;52.512;13.460;2023-01-25T03:29:43;103177.59;;;1.82;78.27
50550;BME280;36505;52.512;13.460;2023-01-25T03:32:08;103172.91;;;1.84;78.12
50550;BME280;36505;52.512;13.460;2023-01-25T03:34:33;103184.19;;;1.89;78.32
50550;BME280;36505;52.512;13.460;2023-01-25T03:36:59;103182.34;;;1.90;78.45
50550;BME280;36505;52.512;13.460;2023-01-25T03:39:24;103163.34;;;1.80;78.42
50550;BME280;36505;52.512;13.460;2023-01-25T03:41:49;103172.13;;;1.93;78.50
50550;BME280;36505;52.512;13.460;2023-01-25T03:44:15;103170.69;;;1.89;78.18
50550;BME280;36505;52.512;13.460;2023-01-25T03:46:41;103173.59;;;1.97;78.04
50550;BME280;36505;52.512;13.460;2023-01-25T03:49:07;103176.31;;;1.97;78.06
50550;BME280;36505;52.512;13.460;2023-01-25T03:51:33;103171.63;;;1.99;78.46
50550;BME280;36505;52.512;13.460;2023-01-25T03:53:59;103153.22;;;1.93;78.56
50550;BME280;36505;52.512;13.460;2023-01-25T03:56:24;103163.50;;;1.99;78.17
50550;BME280;36505;52.512;13.460;2023-01-25T03:58:49;103166.22;;;1.99;78.44
50550;BME280;36505;52.512;13.460;2023-01-25T04:01:15;103159.09;;;1.98;78.11
50550;BME280;36505;52.512;13.460;2023-01-25T04:03:40;103155.69;;;1.96;78.36
50550;BME280;36505;52.512;13.460;2023-01-25T04:06:06;103151.84;;;1.99;78.31
50550;BME280;36505;52.512;13.460;2023-01-25T04:08:31;103150.84;;;2.00;78.52
50550;BME280;36505;52.512;13.460;2023-01-25T04:11:07;103142.75;;;2.00;78.52
50550;BME280;36505;52.512;13.460;2023-01-25T04:13:34;103129.34;;;1.98;78.22
50550;BME280;36505;52.512;13.460;2023-01-25T04:16:01;103129.34;;;1.98;78.72
50550;BME280;36505;52.512;13.460;2023-01-25T04:18:26;103125.78;;;1.98;78.54
50550;BME280;36505;52.512;13.460;2023-01-25T04:20:52;103126.66;;;1.98;78.57
50550;BME280;36505;52.512;13.460;2023-01-25T04:23:18;103111.31;;;1.99;79.09
50550;BME280;36505;52.512;13.460;2023-01-25T04:25:55;103117.56;;;1.99;79.42
50550;BME280;36505;52.512;13.460;2023-01-25T04:28:21;103115.28;;;1.95;79.33
50550;BME280;36505;52.512;13.460;2023-01-25T04:30:46;103107.63;;;2.00;79.11
50550;BME280;36505;52.512;13.460;2023-01-25T04:33:12;103102.94;;;2.02;79.22
50550;BME280;36505;52.512;13.460;2023-01-25T04:35:37;103092.16;;;2.02;79.18
50550;BME280;36505;52.512;13.460;2023-01-25T04:38:03;103089.56;;;2.01;79.51
50550;BME280;36505;52.512;13.460;2023-01-25T04:40:29;103091.16;;;2.03;79.31
50550;BME280;36505;52.512;13.460;2023-01-25T04:42:55;103091.16;;;2.03;79.60
50550;BME280;36505;52.512;13.460;2023-01-25T04:45:21;103099.06;;;1.95;79.79
50550;BME280;36505;52.512;13.460;2023-01-25T04:47:48;103090.94;;;1.95;79.93
50550;BME280;36505;52.512;13.460;2023-01-25T04:50:14;103091.06;;;1.93;80.39
50550;BME280;36505;52.512;13.460;2023-01-25T04:52:39;103080.38;;;1.92;80.61
50550;BME280;36505;52.512;13.460;2023-01-25T04:55:05;103073.94;;;1.83;80.85
50550;BME280;36505;52.512;13.460;2023-01-25T04:57:30;103071.94;;;1.85;81.08
50550;BME280;36505;52.512;13.460;2023-01-25T04:59:56;103070.59;;;1.91;81.09
50550;BME280;36505;52.512;13.460;2023-01-25T05:02:21;103071.91;;;1.96;81.21
50550;BME280;36505;52.512;13.460;2023-01-25T05:04:47;103066.50;;;1.96;81.18
50550;BME280;36505;52.512;13.460;2023-01-25T05:07:12;103073.81;;;2.06;81.13
50550;BME280;36505;52.512;13.460;2023-01-25T05:09:37;103061.03;;;2.08;81.14
50550;BME280;36505;52.512;13.460;2023-01-25T05:12:03;103071.44;;;2.12;80.70
50550;BME280;36505;52.512;13.460;2023-01-25T05:14:35;103059.06;;;2.10;80.91
50550;BME280;36505;52.512;13.460;2023-01-25T05:17:01;103063.59;;;2.09;80.77
50550;BME280;36505;52.512;13.460;2023-01-25T05:19:26;103071.44;;;2.12;80.94
50550;BME280;36505;52.512;13.460;2023-01-25T05:21:51;103055.75;;;2.06;80.66
50550;BME280;36505;52.512;13.460;2023-01-25T05:24:24;103052.72;;;1.99;81.09
50550;BME280;36505;52.512;13.460;2023-01-25T05:26:50;103056.41;;;1.98;81.47
50550;BME280;36505;52.512;13.460;2023-01-25T05:29:34;103061.44;;;2.03;81.42
50550;BME280;36505;52.512;13.460;2023-01-25T05:32:01;103055.91;;;2.05;81.85
50550;BME280;36505;52.512;13.460;2023-01-25T05:34:27;103055.28;;;2.01;81.30
50550;BME280;36505;52.512;13.460;2023-01-25T05:36:53;103054.44;;;2.01;81.50
50550;BME280;36505;52.512;13.460;2023-01-25T05:39:18;103064.50;;;1.98;81.81
50550;BME280;36505;52.512;13.460;2023-01-25T05:41:44;103063.81;;;1.96;81.47
50550;BME280;36505;52.512;13.460;2023-01-25T05:44:09;103056.69;;;1.95;81.92
50550;BME280;36505;52.512;13.460;2023-01-25T05:46:34;103069.78;;;2.00;81.89
50550;BME280;36505;52.512;13.460;2023-01-25T05:49:00;103071.09;;;2.06;81.88
50550;BME280;36505;52.512;13.460;2023-01-25T05:51:25;103064.72;;;2.07;81.38
50550;BME280;36505;52.512;13.460;2023-01-25T05:53:54;103066.31;;;2.09;81.81
50550;BME280;36505;52.512;13.460;2023-01-25T05:56:20;103063.94;;;2.16;81.24
50550;BME280;36505;52.512;13.460;2023-01-25T05:58:46;103061.22;;;2.16;81.07
50550;BME280;36505;52.512;13.460;2023-01-25T06:01:11;103054.84;;;2.17;81.16
50550;BME280;36505;52.512;13.460;2023-01-25T06:03:36;103053.97;;;2.16;80.72
50550;BME280;36505;52.512;13.460;2023-01-25T06:06:02;103051.41;;;2.15;80.46
50550;BME280;36505;52.512;13.460;2023-01-25T06:08:29;103051.16;;;2.18;80.63
50550;BME280;36505;52.512;13.460;2023-01-25T06:10:54;103049.44;;;2.17;80.64
50550;BME280;36505;52.512;13.460;2023-01-25T06:13:20;103047.59;;;2.17;80.36
50550;BME280;36505;52.512;13.460;2023-01-25T06:15:55;103040.59;;;2.15;80.65
50550;BME280;36505;52.512;13.460;2023-01-25T06:18:21;103035.19;;;2.15;80.92
50550;BME280;36505;52.512;13.460;2023-01-25T06:20:46;103039.47;;;2.17;80.97
50550;BME280;36505;52.512;13.460;2023-01-25T06:23:12;103048.56;;;2.16;80.41
50550;BME280;36505;52.512;13.460;2023-01-25T06:25:38;103033.00;;;2.09;80.59
50550;BME280;36505;52.512;13.460;2023-01-25T06:28:04;103035.09;;;2.05;80.91
50550;BME280;36505;52.512;13.460;2023-01-25T06:30:29;103024.72;;;2.01;80.85
50550;BME280;36505;52.512;13.460;2023-01-25T06:32:57;103032.69;;;2.02;81.12
50550;BME280;36505;52.512;13.460;2023-01-25T06:35:22;103023.97;;;1.98;81.30
50550;BME280;36505;52.512;13.460;2023-01-25T06:37:48;103040.50;;;2.05;81.46
50550;BME280;36505;52.512;13.460;2023-01-25T06:40:13;103037.69;;;2.07;81.17
50550;BME280;36505;52.512;13.460;2023-01-25T06:42:41;102933.09;;;1.46;81.36
50550;BME280;36505;52.512;13.460;2023-01-25T06:45:09;102963.25;;;1.72;80.96
50550;BME280;36505;52.512;13.460;2023-01-25T06:47:38;102949.81;;;1.61;81.26
50550;BME280;36505;52.512;13.460;2023-01-25T06:50:04;102990.03;;;1.85;81.42
50550;BME280;36505;52.512;13.460;2023-01-25T06:52:30;102906.22;;;1.45;81.56
50550;BME280;36505;52.512;13.460;2023-01-25T06:55:05;102947.56;;;1.66;81.56
50550;BME280;36505;52.512;13.460;2023-01-25T06:57:39;102909.84;;;1.55;81.13
50550;BME280;36505;52.512;13.460;2023-01-25T07:00:05;102946.25;;;1.81;80.97
50550;BME280;36505;52.512;13.460;2023-01-25T07:02:30;102897.75;;;1.49;80.97
50550;BME280;36505;52.512;13.460;2023-01-25T07:04:56;102930.19;;;1.59;81.14
50550;BME280;36505;52.512;13.460;2023-01-25T07:07:21;102932.31;;;1.55;81.13
50550;BME280;36505;52.512;13.460;2023-01-25T07:09:47;103004.03;;;1.90;81.94
50550;BME280;36505;52.512;13.460;2023-01-25T07:12:12;102910.59;;;1.36;81.64
50550;BME280;36505;52.512;13.460;2023-01-25T07:14:37;102972.53;;;1.79;81.89
50550;BME280;36505;52.512;13.460;2023-01-25T07:17:03;102952.72;;;1.69;81.73
50550;BME280;36505;52.512;13.460;2023-01-25T07:19:28;102954.59;;;1.78;81.42
50550;BME280;36505;52.512;13.460;2023-01-25T07:21:54;102924.25;;;1.65;81.32
50550;BME280;36505;52.512;13.460;2023-01-25T07:24:19;102977.34;;;1.96;81.39
50550;BME280;36505;52.512;13.460;2023-01-25T07:26:45;102966.34;;;1.88;81.42
50550;BME280;36505;52.512;13.460;2023-01-25T07:29:13;102976.03;;;1.91;81.16
50550;BME280;36505;52.512;13.460;2023-01-25T07:31:39;102981.59;;;1.99;81.66
50550;BME280;36505;52.512;13.460;2023-01-25T07:34:11;102959.09;;;1.89;81.37
50550;BME280;36505;52.512;13.460;2023-01-25T07:36:38;102978.78;;;2.01;81.88
50550;BME280;36505;52.512;13.460;2023-01-25T07:39:03;102971.06;;;1.96;81.76
50550;BME280;36505;52.512;13.460;2023-01-25T07:41:29;102967.53;;;1.95;82.16
50550;BME280;36505;52.512;13.460;2023-01-25T07:43:54;102960.66;;;1.91;81.88
50550;BME280;36505;52.512;13.460;2023-01-25T07:46:20;102970.22;;;1.95;82.27
50550;BME280;36505;52.512;13.460;2023-01-25T07:48:50;102966.91;;;1.92;82.57
50550;BME280;36505;52.512;13.460;2023-01-25T07:51:18;102969.22;;;1.96;82.68
50550;BME280;36505;52.512;13.460;2023-01-25T07:53:51;102969.50;;;1.93;82.94
50550;BME280;36505;52.512;13.460;2023-01-25T07:56:18;102964.50;;;1.89;83.13
50550;BME280;36505;52.512;13.460;2023-01-25T07:58:44;102962.47;;;1.81;83.41
50550;BME280;36505;52.512;13.460;2023-01-25T08:01:12;102956.19;;;1.81;83.60
50550;BME280;36505;52.512;13.460;2023-01-25T08:03:38;102963.19;;;1.83;83.33
50550;BME280;36505;52.512;13.460;2023-01-25T08:06:05;102951.38;;;1.84;82.98
50550;BME280;36505;52.512;13.460;2023-01-25T08:08:32;102947.69;;;1.85;83.45
50550;BME280;36505;52.512;13.460;2023-01-25T08:13:32;102949.03;;;1.91;83.71
50550;BME280;36505;52.512;13.460;2023-01-25T08:15:58;102932.34;;;1.86;83.92
50550;BME280;36505;52.512;13.460;2023-01-25T08:18:23;102948.16;;;1.90;83.87
50550;BME280;36505;52.512;13.460;2023-01-25T08:20:49;102934.66;;;1.90;83.65
50550;BME280;36505;52.512;13.460;2023-01-25T08:23:15;102938.91;;;1.93;84.04
50550;BME280;36505;52.512;13.460;2023-01-25T08:25:40;102927.41;;;1.91;84.84
50550;BME280;36505;52.512;13.460;2023-01-25T08:28:06;102934.25;;;1.95;84.95
50550;BME280;36505;52.512;13.460;2023-01-25T08:30:32;102934.69;;;2.00;84.67
50550;BME280;36505;52.512;13.460;2023-01-25T08:32:57;102928.53;;;1.98;84.87
50550;BME280;36505;52.512;13.460;2023-01-25T08:35:22;102933.56;;;2.03;84.68
50550;BME280;36505;52.512;13.460;2023-01-25T08:37:48;102938.97;;;2.03;84.50
50550;BME280;36505;52.512;13.460;2023-01-25T08:40:13;102940.81;;;2.02;84.50
50550;BME280;36505;52.512;13.460;2023-01-25T08:42:39;102931.00;;;2.01;84.92
50550;BME280;36505;52.512;13.460;2023-01-25T08:45:07;102933.28;;;2.06;84.73
50550;BME280;36505;52.512;13.460;2023-01-25T08:47:33;102921.47;;;1.97;84.50
50550;BME280;36505;52.512;13.460;2023-01-25T08:49:58;102935.28;;;2.04;84.69
50550;BME280;36505;52.512;13.460;2023-01-25T08:52:23;102926.69;;;1.98;84.25
50550;BME280;36505;52.512;13.460;2023-01-25T08:54:49;102929.56;;;1.97;84.41
50550;BME280;36505;52.512;13.460;2023-01-25T08:57:14;102927.72;;;1.97;84.49
50550;BME280;36505;52.512;13.460;2023-01-25T08:59:40;102925.72;;;1.99;84.88
50550;BME280;36505;52.512;13.460;2023-01-25T09:02:05;102906.84;;;1.79;84.74
50550;BME280;36505;52.512;13.460;2023-01-25T09:04:30;102928.97;;;1.93;84.73
50550;BME280;36505;52.512;13.460;2023-01-25T09:06:56;102921.53;;;1.86;84.81
50550;BME280;36505;52.512;13.460;2023-01-25T09:09:21;102927.00;;;1.95;84.77
50550;BME280;36505;52.512;13.460;2023-01-25T09:11:49;102928.53;;;1.98;84.98
50550;BME280;36505;52.512;13.460;2023-01-25T09:14:14;102915.56;;;1.92;84.42
50550;BME280;36505;52.512;13.460;2023-01-25T09:16:40;102928.97;;;1.93;84.68
50550;BME280;36505;52.512;13.460;2023-01-25T09:19:05;102931.94;;;1.90;84.31
50550;BME280;36505;52.512;13.460;2023-01-25T09:21:31;102922.13;;;1.89;84.42
50550;BME280;36505;52.512;13.460;2023-01-25T09:23:57;102916.41;;;1.83;84.44
50550;BME280;36505;52.512;13.460;2023-01-25T09:26:23;102913.09;;;1.79;84.67
50550;BME280;36505;52.512;13.460;2023-01-25T09:28:50;102920.09;;;1.82;84.49
50550;BME280;36505;52.512;13.460;2023-01-25T09:31:16;102919.69;;;1.86;84.39
50550;BME280;36505;52.512;13.460;2023-01-25T09:33:42;102922.66;;;1.83;84.98
50550;BME280;36505;52.512;13.460;2023-01-25T09:36:08;102911.00;;;1.83;84.90
50550;BME280;36505;52.512;13.460;2023-01-25T09:38:34;102903.16;;;1.80;84.64
50550;BME280;36505;52.512;13.460;2023-01-25T09:46:36;102899.78;;;1.87;85.09
50550;BME280;36505;52.512;13.460;2023-01-25T09:54:36;102897.09;;;1.87;84.71
50550;BME280;36505;52.512;13.460;2023-01-25T09:57:10;102892.84;;;1.94;84.80
50550;BME280;36505;52.512;13.460;2023-01-25T09:59:39;102907.09;;;1.96;84.44
50550;BME280;36505;52.512;13.460;2023-01-25T10:04:44;102891.06;;;2.05;84.18
50550;BME280;36505;52.512;13.460;2023-01-25T10:07:22;102880.38;;;2.03;84.15
50550;BME280;36505;52.512;13.460;2023-01-25T10:12:23;102887.41;;;1.85;84.69
50550;BME280;36505;52.512;13.460;2023-01-25T10:14:50;102882.84;;;1.85;84.59
50550;BME280;36505;52.512;13.460;2023-01-25T10:23:20;102854.28;;;1.83;84.97
50550;BME280;36505;52.512;13.460;2023-01-25T10:25:57;102867.91;;;1.81;85.12
50550;BME280;36505;52.512;13.460;2023-01-25T10:28:40;102851.41;;;1.84;85.26
50550;BME280;36505;52.512;13.460;2023-01-25T10:33:36;102848.47;;;1.87;84.95
50550;BME280;36505;52.512;13.460;2023-01-25T10:36:04;102839.38;;;1.88;84.83
50550;BME280;36505;52.512;13.460;2023-01-25T10:38:39;102844.78;;;1.88;85.15
50550;BME280;36505;52.512;13.460;2023-01-25T10:41:20;102845.06;;;1.95;85.35
50550;BME280;36505;52.512;13.460;2023-01-25T10:43:48;102846.78;;;1.96;84.75
50550;BME280;36505;52.512;13.460;2023-01-25T10:46:33;102835.13;;;1.95;84.83
50550;BME280;36505;52.512;13.460;2023-01-25T10:49:08;102826.88;;;1.97;84.60
50550;BME280;36505;52.512;13.460;2023-01-25T10:51:37;102832.59;;;2.04;84.97
50550;BME280;36505;52.512;13.460;2023-01-25T10:54:04;102832.44;;;2.05;84.74
50550;BME280;36505;52.512;13.460;2023-01-25T10:56:33;102818.91;;;2.05;84.65
50550;BME280;36505;52.512;13.460;2023-01-25T10:59:26;102821.50;;;2.07;84.18
50550;BME280;36505;52.512;13.460;2023-01-25T11:01:53;102818.91;;;2.05;84.37
50550;BME280;36505;52.512;13.460;2023-01-25T11:04:33;102815.22;;;2.06;84.24
50550;BME280;36505;52.512;13.460;2023-01-25T11:07:02;102797.84;;;1.99;83.83
50550;BME280;36505;52.512;13.460;2023-01-25T11:11:59;102800.56;;;1.99;84.28
50550;BME280;36505;52.512;13.460;2023-01-25T11:14:28;102800.31;;;2.02;84.14
50550;BME280;36505;52.512;13.460;2023-01-25T11:16:55;102797.16;;;2.07;84.33
50550;BME280;36505;52.512;13.460;2023-01-25T11:21:56;102782.50;;;1.99;83.85
50550;BME280;36505;52.512;13.460;2023-01-25T11:24:31;102769.84;;;1.90;83.90
50550;BME280;36505;52.512;13.460;2023-01-25T11:27:22;102770.38;;;1.84;84.48
50550;BME280;36505;52.512;13.460;2023-01-25T11:30:15;102759.28;;;1.78;84.66
50550;BME280;36505;52.512;13.460;2023-01-25T11:32:43;102754.72;;;1.78;84.75
50550;BME280;36505;52.512;13.460;2023-01-25T11:35:20;102748.88;;;1.73;84.88
50550;BME280;36505;52.512;13.460;2023-01-25T11:38:03;102736.94;;;1.66;85.71
50550;BME280;36505;52.512;13.460;2023-01-25T11:40:42;102736.38;;;1.63;85.70
50550;BME280;36505;52.512;13.460;2023-01-25T11:49:25;102723.00;;;1.61;86.38
50550;BME280;36505;52.512;13.460;2023-01-25T11:54:30;102699.72;;;1.70;86.22
50550;BME280;36505;52.512;13.460;2023-01-25T12:06:11;102671.88;;;1.88;85.73
50550;BME280;36505;52.512;13.460;2023-01-25T12:14:28;102656.81;;;1.95;86.03
50550;BME280;36505;52.512;13.460;2023-01-25T12:22:28;102639.16;;;1.91;86.26
50550;BME280;36505;52.512;13.460;2023-01-25T12:28:02;102634.19;;;1.87;86.09
50550;BME280;36505;52.512;13.460;2023-01-25T12:33:19;102614.16;;;1.89;86.37
50550;BME280;36505;52.512;13.460;2023-01-25T12:35:58;102619.69;;;1.88;86.14
50550;BME280;36505;52.512;13.460;2023-01-25T12:38:35;102616.53;;;1.92;85.92
50550;BME280;36505;52.512;13.460;2023-01-25T12:43:38;102620.81;;;1.95;86.70
50550;BME280;36505;52.512;13.460;2023-01-25T12:46:23;102602.34;;;1.90;86.50
50550;BME280;36505;52.512;13.460;2023-01-25T12:48:51;102612.41;;;1.98;86.42
50550;BME280;36505;52.512;13.460;2023-01-25T12:51:21;102593.94;;;1.93;85.87
50550;BME280;36505;52.512;13.460;2023-01-25T12:53:49;102599.34;;;1.93;85.73
50550;BME280;36505;52.512;13.460;2023-01-25T13:02:36;102587.13;;;1.80;85.75
50550;BME280;36505;52.512;13.460;2023-01-25T13:10:39;102590.53;;;1.82;86.03
50550;BME280;36505;52.512;13.460;2023-01-25T13:13:26;102579.88;;;1.80;86.00
50550;BME280;36505;52.512;13.460;2023-01-25T13:15:53;102583.31;;;1.82;86.00
50550;BME280;36505;52.512;13.460;2023-01-25T13:20:59;102584.00;;;1.75;86.13
50550;BME280;36505;52.512;13.460;2023-01-25T13:23:32;102579.31;;;1.67;86.33
50550;BME280;36505;52.512;13.460;2023-01-25T13:28:58;102567.78;;;1.46;86.79
50550;BME280;36505;52.512;13.460;2023-01-25T13:36:58;102538.94;;;1.46;87.48
50550;BME280;36505;52.512;13.460;2023-01-25T13:42:17;102543.34;;;1.57;87.46
50550;BME280;36505;52.512;13.460;2023-01-25T13:44:45;102542.22;;;1.59;87.65
50550;BME280;36505;52.512;13.460;2023-01-25T13:47:18;102544.47;;;1.64;87.41
50550;BME280;36505;52.512;13.460;2023-01-25T13:49:56;102535.97;;;1.69;87.34
50550;BME280;36505;52.512;13.460;2023-01-25T13:52:25;102532.09;;;1.71;86.83
50550;BME280;36505;52.512;13.460;2023-01-25T13:54:53;102520.31;;;1.72;86.81
50550;BME280;36505;52.512;13.460;2023-01-25T13:57:30;102516.63;;;1.73;86.49
50550;BME280;36505;52.512;13.460;2023-01-25T14:00:06;102519.63;;;1.70;85.89
50550;BME280;36505;52.512;13.460;2023-01-25T14:02:39;102509.38;;;1.64;86.29
50550;BME280;36505;52.512;13.460;2023-01-25T14:05:16;102518.91;;;1.68;86.34
50550;BME280;36505;52.512;13.460;2023-01-25T14:07:45;102514.78;;;1.64;86.76
50550;BME280;36505;52.512;13.460;2023-01-25T14:10:16;102507.69;;;1.63;86.98
50550;BME280;36505;52.512;13.460;2023-01-25T14:12:43;102501.28;;;1.64;86.99
50550;BME280;36505;52.512;13.460;2023-01-25T14:15:19;102509.22;;;1.66;86.84
50550;BME280;36505;52.512;13.460;2023-01-25T14:17:46;102499.59;;;1.63;86.70
50550;BME280;36505;52.512;13.460;2023-01-25T14:20:27;102502.84;;;1.67;87.12
50550;BME280;36505;52.512;13.460;2023-01-25T14:22:53;102496.72;;;1.65;87.21
50550;BME280;36505;52.512;13.460;2023-01-25T14:25:20;102502.00;;;1.66;86.67
50550;BME280;36505;52.512;13.460;2023-01-25T14:27:49;102493.88;;;1.66;86.65
50550;BME280;36505;52.512;13.460;2023-01-25T14:32:42;102488.63;;;1.65;86.84
50550;BME280;36505;52.512;13.460;2023-01-25T14:37:55;102483.09;;;1.66;87.01
50550;BME280;36505;52.512;13.460;2023-01-25T14:40:21;102488.50;;;1.66;86.98
50550;BME280;36505;52.512;13.460;2023-01-25T14:42:48;102476.28;;;1.62;86.97
50550;BME280;36505;52.512;13.460;2023-01-25T14:45:15;102472.72;;;1.62;86.99